Time;durP1;ratioP1;P1;durP2;ratioP2;P2;SDS_P1;SDS_P2;PMS_P1;PMS_P2;Temp;Humidity;BMP_temperature;BMP_pressure;BME280_temperature;BME280_humidity;BME280_pressure;Samples;Min_cycle;Max_cycle;Signal;HPM_P1;HPM_P2
2022/11/17 00:01:40;;;;;;;55.55;22.83;;;;;;;;;;6219226;23;20411;-67
2022/11/17 00:04:07;;;;;;;50.00;21.67;;;;;;;;;;6194563;23;20342;-67
2022/11/17 00:06:33;;;;;;;50.78;23.52;;;;;;;;;;6246587;23;20016;-68
2022/11/17 00:08:59;;;;;;;47.75;21.33;;;;;;;;;;6219303;23;20088;-67
2022/11/17 00:11:25;;;;;;;49.53;22.80;;;;;;;;;;6246321;23;20326;-67
2022/11/17 00:16:35;;;;;;;45.47;22.10;;;;;;;;;;6219658;23;20048;-67
2022/11/17 00:21:46;;;;;;;45.05;20.63;;;;;;;;;;6219633;23;20359;-67
2022/11/17 00:24:15;;;;;;;43.75;20.30;;;;;;;;;;6219597;23;20324;-68
2022/11/17 00:27:00;;;;;;;45.90;21.08;;;;;;;;;;6219510;23;20019;-67
2022/11/17 00:29:26;;;;;;;43.35;20.98;;;;;;;;;;6202764;23;20451;-68
2022/11/17 00:34:37;;;;;;;43.60;21.13;;;;;;;;;;6163301;23;20021;-67
2022/11/17 00:37:03;;;;;;;41.50;19.40;;;;;;;;;;6159640;23;20359;-67
2022/11/17 00:39:29;;;;;;;37.85;19.50;;;;;;;;;;6184333;23;20088;-68
2022/11/17 00:41:56;;;;;;;43.53;20.77;;;;;;;;;;6184390;23;20096;-67
2022/11/17 00:44:22;;;;;;;44.35;19.17;;;;;;;;;;6184534;23;20075;-67
2022/11/17 00:46:48;;;;;;;38.17;19.45;;;;;;;;;;6184405;23;20017;-67
2022/11/17 00:49:14;;;;;;;36.00;19.35;;;;;;;;;;6185782;23;20013;-67
2022/11/17 00:51:40;;;;;;;40.60;20.70;;;;;;;;;;6184023;23;20013;-67
2022/11/17 00:54:07;;;;;;;38.05;19.65;;;;;;;;;;6184223;23;20013;-68
2022/11/17 00:56:33;;;;;;;38.15;19.35;;;;;;;;;;6184419;23;20024;-67
2022/11/17 00:59:00;;;;;;;34.75;19.23;;;;;;;;;;6184342;23;20132;-67
2022/11/17 01:01:26;;;;;;;36.10;18.58;;;;;;;;;;6184170;23;20052;-67
2022/11/17 01:04:01;;;;;;;36.13;18.88;;;;;;;;;;6185534;23;20459;-67
2022/11/17 01:06:30;;;;;;;34.38;18.17;;;;;;;;;;6184194;23;20440;-67
2022/11/17 01:08:58;;;;;;;43.30;19.83;;;;;;;;;;6183880;23;20078;-68
2022/11/17 01:11:24;;;;;;;36.03;17.60;;;;;;;;;;6183866;23;20021;-67
2022/11/17 01:13:53;;;;;;;34.72;17.70;;;;;;;;;;6183979;23;20040;-67
2022/11/17 01:16:19;;;;;;;33.78;18.75;;;;;;;;;;6184272;23;20017;-67
2022/11/17 01:18:46;;;;;;;34.50;18.48;;;;;;;;;;6185949;23;20020;-67
2022/11/17 01:21:14;;;;;;;31.30;17.83;;;;;;;;;;6185660;23;20028;-67
2022/11/17 01:23:41;;;;;;;33.05;17.67;;;;;;;;;;6183883;23;20020;-67
2022/11/17 01:26:36;;;;;;;31.20;17.52;;;;;;;;;;6184213;23;20013;-67
2022/11/17 01:29:03;;;;;;;30.83;17.67;;;;;;;;;;6176962;23;20088;-67
2022/11/17 01:31:31;;;;;;;25.92;16.52;;;;;;;;;;6218847;23;20046;-67
2022/11/17 01:33:57;;;;;;;30.27;17.35;;;;;;;;;;6246072;23;20016;-67
2022/11/17 01:36:24;;;;;;;32.65;18.10;;;;;;;;;;6219117;23;20020;-67
2022/11/17 01:38:51;;;;;;;29.05;17.02;;;;;;;;;;6219059;23;20013;-67
2022/11/17 01:41:18;;;;;;;30.60;16.85;;;;;;;;;;6193720;23;20524;-67
2022/11/17 01:43:46;;;;;;;31.95;17.23;;;;;;;;;;6218738;23;20020;-67
2022/11/17 01:46:17;;;;;;;35.38;16.75;;;;;;;;;;6218802;23;20024;-67
2022/11/17 01:48:44;;;;;;;29.77;17.83;;;;;;;;;;6218885;23;20012;-67
2022/11/17 01:51:11;;;;;;;32.58;16.50;;;;;;;;;;6218659;23;20016;-67
2022/11/17 01:53:38;;;;;;;31.40;17.30;;;;;;;;;;6193577;23;20024;-67
2022/11/17 01:56:06;;;;;;;25.35;15.95;;;;;;;;;;6218889;23;20012;-67
2022/11/17 01:58:34;;;;;;;27.00;15.90;;;;;;;;;;6218611;23;20016;-67
2022/11/17 02:01:00;;;;;;;26.85;16.95;;;;;;;;;;6245462;23;20026;-67
2022/11/17 02:03:27;;;;;;;27.88;15.98;;;;;;;;;;6218669;23;20026;-67
2022/11/17 02:06:06;;;;;;;25.95;16.10;;;;;;;;;;6218702;23;20020;-67
2022/11/17 02:08:32;;;;;;;24.02;16.30;;;;;;;;;;6193531;23;20020;-67
2022/11/17 02:11:00;;;;;;;23.80;15.57;;;;;;;;;;6218512;23;20024;-67
2022/11/17 02:13:27;;;;;;;27.10;17.90;;;;;;;;;;6218645;23;20427;-67
2022/11/17 02:15:53;;;;;;;25.65;15.77;;;;;;;;;;6218601;23;20087;-67
2022/11/17 02:18:19;;;;;;;25.80;15.32;;;;;;;;;;6218494;23;20012;-67
2022/11/17 02:20:51;;;;;;;27.52;15.65;;;;;;;;;;6193702;23;20090;-67
2022/11/17 02:23:23;;;;;;;28.02;15.07;;;;;;;;;;6218494;23;20476;-67
2022/11/17 02:25:55;;;;;;;27.67;16.00;;;;;;;;;;6218449;23;20074;-67
2022/11/17 02:28:23;;;;;;;27.52;15.73;;;;;;;;;;6218454;23;20075;-68
2022/11/17 02:30:52;;;;;;;28.20;16.00;;;;;;;;;;6245084;23;20095;-67
2022/11/17 02:33:29;;;;;;;26.77;14.98;;;;;;;;;;6218340;23;20347;-67
2022/11/17 02:36:07;;;;;;;32.83;15.55;;;;;;;;;;6245211;23;20011;-67
2022/11/17 02:38:39;;;;;;;30.40;16.25;;;;;;;;;;6193093;23;20020;-67
2022/11/17 02:41:08;;;;;;;28.02;15.68;;;;;;;;;;6245250;23;20020;-67
2022/11/17 02:46:28;;;;;;;28.55;16.30;;;;;;;;;;6218275;23;20039;-67
2022/11/17 02:48:56;;;;;;;25.15;15.75;;;;;;;;;;6218349;23;20019;-67
2022/11/17 02:51:22;;;;;;;27.77;15.57;;;;;;;;;;6218038;23;20052;-67
2022/11/17 02:53:56;;;;;;;28.60;15.57;;;;;;;;;;6245082;23;20012;-66
2022/11/17 02:56:22;;;;;;;27.08;15.55;;;;;;;;;;6245083;23;20439;-67
2022/11/17 02:58:56;;;;;;;25.63;16.00;;;;;;;;;;6193138;23;20343;-67
2022/11/17 03:01:22;;;;;;;28.90;15.82;;;;;;;;;;6245306;23;20074;-67
2022/11/17 03:04:11;;;;;;;26.00;15.82;;;;;;;;;;6218067;23;20016;-67
2022/11/17 03:06:45;;;;;;;28.30;16.00;;;;;;;;;;6216886;23;20024;-67
2022/11/17 03:09:11;;;;;;;23.58;14.50;;;;;;;;;;6218219;23;20065;-67
2022/11/17 03:11:57;;;;;;;31.45;15.77;;;;;;;;;;6244837;23;20048;-67
2022/11/17 03:14:29;;;;;;;26.92;15.35;;;;;;;;;;6218147;23;20105;-66
2022/11/17 03:17:00;;;;;;;27.07;15.60;;;;;;;;;;6217981;23;20015;-67
2022/11/17 03:19:32;;;;;;;23.38;15.13;;;;;;;;;;6244895;23;20012;-66
2022/11/17 03:21:59;;;;;;;23.60;15.43;;;;;;;;;;6218091;23;20378;-66
2022/11/17 03:24:29;;;;;;;24.10;15.20;;;;;;;;;;6217816;23;20042;-66
2022/11/17 03:26:58;;;;;;;24.50;14.75;;;;;;;;;;6244980;23;20438;-66
2022/11/17 03:29:26;;;;;;;19.95;13.52;;;;;;;;;;6218035;23;20446;-66
2022/11/17 03:31:56;;;;;;;28.55;14.82;;;;;;;;;;6244638;23;20016;-66
2022/11/17 03:34:23;;;;;;;23.85;14.10;;;;;;;;;;6217812;23;20339;-66
2022/11/17 03:36:51;;;;;;;23.20;13.80;;;;;;;;;;6217973;23;20338;-66
2022/11/17 03:39:22;;;;;;;23.23;13.75;;;;;;;;;;6244618;23;20070;-66
2022/11/17 03:41:51;;;;;;;21.67;13.82;;;;;;;;;;6217891;23;20099;-66
2022/11/17 03:44:20;;;;;;;24.75;14.18;;;;;;;;;;6217879;23;20308;-66
2022/11/17 03:46:48;;;;;;;26.70;14.98;;;;;;;;;;6244573;23;20016;-66
2022/11/17 03:49:20;;;;;;;21.67;14.45;;;;;;;;;;6217604;23;20439;-66
2022/11/17 03:51:46;;;;;;;24.95;13.70;;;;;;;;;;6217612;23;20024;-66
2022/11/17 03:54:13;;;;;;;20.65;13.48;;;;;;;;;;6245040;23;20431;-66
2022/11/17 03:56:45;;;;;;;22.15;13.50;;;;;;;;;;6217947;23;20481;-66
2022/11/17 03:59:17;;;;;;;25.35;14.80;;;;;;;;;;6244810;23;20046;-67
2022/11/17 04:01:44;;;;;;;24.33;14.70;;;;;;;;;;6217991;23;20096;-66
2022/11/17 04:04:17;;;;;;;33.13;14.30;;;;;;;;;;6244947;23;20043;-66
2022/11/17 04:06:43;;;;;;;22.67;14.85;;;;;;;;;;6244801;23;20078;-66
2022/11/17 04:09:09;;;;;;;23.70;14.00;;;;;;;;;;6218043;23;20062;-66
2022/11/17 04:17:04;;;;;;;20.88;13.40;;;;;;;;;;6217646;23;20087;-66
2022/11/17 04:19:30;;;;;;;19.95;13.20;;;;;;;;;;6217750;23;20047;-66
2022/11/17 04:21:56;;;;;;;23.48;13.88;;;;;;;;;;6244672;23;20012;-66
2022/11/17 04:24:23;;;;;;;21.13;12.93;;;;;;;;;;6217776;23;20446;-66
2022/11/17 04:29:33;;;;;;;20.95;13.15;;;;;;;;;;6221759;23;20031;-66
2022/11/17 04:32:00;;;;;;;21.85;12.98;;;;;;;;;;6244416;23;20020;-66
2022/11/17 04:34:26;;;;;;;20.05;12.98;;;;;;;;;;6217593;23;20009;-66
2022/11/17 04:36:52;;;;;;;18.42;12.10;;;;;;;;;;6245940;23;20012;-66
2022/11/17 04:39:18;;;;;;;18.23;12.27;;;;;;;;;;6246158;23;20383;-66
2022/11/17 04:41:55;;;;;;;18.00;12.30;;;;;;;;;;6246121;23;20016;-66
2022/11/17 04:44:25;;;;;;;20.35;13.10;;;;;;;;;;6246495;23;20035;-66
2022/11/17 04:46:52;;;;;;;18.65;12.07;;;;;;;;;;6246777;23;20382;-66
2022/11/17 04:49:19;;;;;;;18.27;11.15;;;;;;;;;;6246246;23;20069;-66
2022/11/17 04:51:45;;;;;;;18.10;11.40;;;;;;;;;;6194533;23;20023;-66
2022/11/17 04:54:12;;;;;;;17.10;10.85;;;;;;;;;;6218988;23;20019;-66
2022/11/17 04:56:38;;;;;;;20.75;12.05;;;;;;;;;;6246428;23;20079;-66
2022/11/17 04:59:04;;;;;;;20.38;12.90;;;;;;;;;;6246091;23;20016;-66
2022/11/17 05:01:30;;;;;;;18.80;11.95;;;;;;;;;;6244671;23;20024;-66
2022/11/17 05:03:58;;;;;;;18.90;12.32;;;;;;;;;;6244966;23;20070;-66
2022/11/17 05:06:30;;;;;;;20.02;12.18;;;;;;;;;;6219134;23;20020;-66
2022/11/17 05:08:57;;;;;;;17.27;12.13;;;;;;;;;;6219011;23;20079;-66
2022/11/17 05:14:09;;;;;;;19.00;11.80;;;;;;;;;;6219292;23;20090;-67
2022/11/17 05:19:24;;;;;;;20.42;12.25;;;;;;;;;;6246339;23;20038;-66
2022/11/17 05:21:50;;;;;;;15.73;11.93;;;;;;;;;;6219037;23;20020;-66
2022/11/17 05:24:16;;;;;;;18.48;11.65;;;;;;;;;;6194053;23;20384;-66
2022/11/17 05:26:43;;;;;;;17.10;10.88;;;;;;;;;;6245967;23;20142;-66
2022/11/17 05:29:10;;;;;;;18.67;11.63;;;;;;;;;;6245611;23;20052;-66
2022/11/17 05:31:36;;;;;;;19.38;12.10;;;;;;;;;;6218802;23;20112;-66
2022/11/17 05:34:03;;;;;;;23.15;12.10;;;;;;;;;;6218745;23;20027;-66
2022/11/17 05:36:29;;;;;;;18.63;11.52;;;;;;;;;;6218979;23;20016;-66
2022/11/17 05:38:56;;;;;;;16.20;11.45;;;;;;;;;;6218823;23;20027;-66
2022/11/17 05:41:22;;;;;;;19.50;11.75;;;;;;;;;;6245655;23;20477;-66
2022/11/17 05:43:49;;;;;;;22.08;12.60;;;;;;;;;;6218707;23;20070;-66
2022/11/17 05:46:16;;;;;;;17.65;11.60;;;;;;;;;;6218783;23;20023;-66
2022/11/17 05:48:42;;;;;;;17.60;11.27;;;;;;;;;;6218271;23;20399;-66
2022/11/17 05:51:09;;;;;;;18.20;11.05;;;;;;;;;;6218564;23;20091;-66
2022/11/17 05:53:35;;;;;;;17.75;11.65;;;;;;;;;;6193636;23;20023;-66
2022/11/17 05:56:22;;;;;;;18.88;11.85;;;;;;;;;;6193616;23;20012;-66
2022/11/17 05:58:52;;;;;;;17.67;11.23;;;;;;;;;;6193757;23;20098;-66
2022/11/17 06:01:20;;;;;;;18.33;11.25;;;;;;;;;;6218604;23;20016;-66
2022/11/17 06:03:52;;;;;;;16.15;10.70;;;;;;;;;;6218785;23;20091;-66
2022/11/17 06:06:19;;;;;;;21.10;11.35;;;;;;;;;;6218630;23;20015;-66
2022/11/17 06:08:45;;;;;;;18.67;11.50;;;;;;;;;;6193754;23;20075;-66
2022/11/17 06:11:11;;;;;;;19.98;11.80;;;;;;;;;;6218286;23;20016;-66
2022/11/17 06:13:37;;;;;;;16.30;11.23;;;;;;;;;;6218579;23;20019;-66
2022/11/17 06:16:05;;;;;;;17.15;10.88;;;;;;;;;;6193576;23;20019;-67
2022/11/17 06:18:33;;;;;;;16.77;10.73;;;;;;;;;;6218600;23;20095;-66
2022/11/17 06:20:59;;;;;;;15.30;10.80;;;;;;;;;;6245193;23;20432;-66
2022/11/17 06:23:27;;;;;;;16.98;10.77;;;;;;;;;;6218486;23;20087;-66
2022/11/17 06:25:53;;;;;;;18.00;10.55;;;;;;;;;;6218515;23;20478;-66
2022/11/17 06:28:20;;;;;;;15.95;10.93;;;;;;;;;;6218402;23;20074;-66
2022/11/17 06:30:47;;;;;;;15.55;10.18;;;;;;;;;;6217970;23;20016;-67
2022/11/17 06:33:15;;;;;;;14.45;9.82;;;;;;;;;;6245556;23;20012;-66
2022/11/17 06:35:42;;;;;;;16.02;9.70;;;;;;;;;;6245272;23;20015;-66
2022/11/17 06:38:08;;;;;;;13.43;9.18;;;;;;;;;;6218248;23;20015;-66
2022/11/17 06:40:34;;;;;;;15.65;9.65;;;;;;;;;;6245017;23;20016;-66
2022/11/17 06:43:07;;;;;;;16.95;10.48;;;;;;;;;;6245576;23;20091;-66
2022/11/17 06:45:33;;;;;;;14.88;9.93;;;;;;;;;;6218010;23;20026;-66
2022/11/17 06:48:00;;;;;;;14.05;9.27;;;;;;;;;;6245592;23;20015;-66
2022/11/17 06:50:26;;;;;;;16.48;9.90;;;;;;;;;;6245020;23;20071;-66
2022/11/17 06:52:55;;;;;;;12.40;9.15;;;;;;;;;;6218426;23;20019;-66
2022/11/17 06:55:21;;;;;;;14.52;9.52;;;;;;;;;;6218342;23;20023;-66
2022/11/17 06:57:47;;;;;;;11.63;8.18;;;;;;;;;;6218386;23;20016;-67
2022/11/17 07:00:14;;;;;;;12.10;8.13;;;;;;;;;;6245173;23;20038;-66
2022/11/17 07:02:40;;;;;;;14.98;9.13;;;;;;;;;;6218042;23;20442;-66
2022/11/17 07:05:06;;;;;;;12.68;8.13;;;;;;;;;;6244849;23;20020;-66
2022/11/17 07:07:32;;;;;;;12.75;8.30;;;;;;;;;;6218170;22;20016;-67
2022/11/17 07:09:58;;;;;;;10.25;8.32;;;;;;;;;;6244581;23;20094;-67
2022/11/17 07:12:24;;;;;;;13.30;8.20;;;;;;;;;;6244603;23;20038;-67
2022/11/17 07:14:50;;;;;;;11.77;8.38;;;;;;;;;;6243904;23;20098;-67
2022/11/17 07:17:16;;;;;;;11.40;8.23;;;;;;;;;;6216180;23;20031;-67
2022/11/17 07:19:42;;;;;;;10.02;8.48;;;;;;;;;;6216688;23;20012;-67
2022/11/17 07:22:08;;;;;;;10.60;8.10;;;;;;;;;;6245278;23;20458;-67
2022/11/17 07:24:34;;;;;;;10.55;8.43;;;;;;;;;;6218529;23;20442;-67
2022/11/17 07:27:00;;;;;;;12.35;8.77;;;;;;;;;;6245336;23;20391;-67
2022/11/17 07:29:27;;;;;;;10.48;8.40;;;;;;;;;;6245369;23;20012;-67
2022/11/17 07:31:54;;;;;;;12.90;7.80;;;;;;;;;;6245232;23;20463;-67
2022/11/17 07:34:20;;;;;;;14.30;8.30;;;;;;;;;;6218458;23;20012;-67
2022/11/17 07:36:46;;;;;;;13.35;8.65;;;;;;;;;;6245268;23;20091;-66
2022/11/17 07:39:14;;;;;;;14.32;8.35;;;;;;;;;;6245304;23;20023;-67
2022/11/17 07:41:40;;;;;;;11.80;8.25;;;;;;;;;;6218361;23;20016;-66
2022/11/17 07:44:06;;;;;;;12.88;8.93;;;;;;;;;;6245400;23;20485;-66
2022/11/17 07:46:32;;;;;;;12.18;8.90;;;;;;;;;;6218098;23;20447;-66
2022/11/17 07:48:58;;;;;;;11.27;8.40;;;;;;;;;;6243218;23;20532;-66
2022/11/17 07:51:25;;;;;;;11.05;8.82;;;;;;;;;;6244952;23;20063;-66
2022/11/17 07:53:51;;;;;;;12.43;8.05;;;;;;;;;;6246163;23;20083;-66
2022/11/17 07:56:17;;;;;;;12.85;8.73;;;;;;;;;;6191220;23;20016;-66
2022/11/17 07:58:43;;;;;;;12.57;8.43;;;;;;;;;;6216262;23;20087;-67
2022/11/17 08:01:11;;;;;;;15.55;8.43;;;;;;;;;;6243909;23;20016;-66
2022/11/17 08:03:37;;;;;;;11.35;8.45;;;;;;;;;;6244767;23;20442;-66
2022/11/17 08:06:04;;;;;;;12.45;8.45;;;;;;;;;;6218406;23;20036;-67
2022/11/17 08:08:31;;;;;;;12.02;8.38;;;;;;;;;;6218506;23;20091;-67
2022/11/17 08:11:01;;;;;;;10.95;8.02;;;;;;;;;;6218904;23;20020;-67
2022/11/17 08:13:27;;;;;;;12.68;8.95;;;;;;;;;;6245190;23;20435;-67
2022/11/17 08:15:57;;;;;;;11.35;8.88;;;;;;;;;;6194970;23;20482;-67
2022/11/17 08:18:24;;;;;;;10.77;8.40;;;;;;;;;;6246571;23;20012;-66
2022/11/17 08:20:50;;;;;;;10.35;7.53;;;;;;;;;;6219716;23;20020;-66
2022/11/17 08:23:16;;;;;;;10.80;7.40;;;;;;;;;;6247604;23;20016;-66
2022/11/17 08:25:42;;;;;;;11.40;8.10;;;;;;;;;;6220276;23;20023;-67
2022/11/17 08:28:09;;;;;;;10.40;7.70;;;;;;;;;;6220448;23;20020;-67
2022/11/17 08:30:35;;;;;;;9.50;7.43;;;;;;;;;;6220119;23;20393;-67
2022/11/17 08:33:01;;;;;;;9.95;7.95;;;;;;;;;;6220996;23;20039;-67
2022/11/17 08:35:28;;;;;;;12.27;7.43;;;;;;;;;;6247479;23;20008;-66
2022/11/17 08:37:54;;;;;;;11.88;7.70;;;;;;;;;;6220336;23;20020;-66
2022/11/17 08:40:21;;;;;;;9.02;6.82;;;;;;;;;;6220265;23;20020;-66
2022/11/17 08:42:52;;;;;;;10.10;6.45;;;;;;;;;;6220412;23;20020;-67
2022/11/17 08:45:18;;;;;;;9.35;7.25;;;;;;;;;;6247050;23;20016;-66
2022/11/17 08:47:44;;;;;;;8.90;7.15;;;;;;;;;;6247144;23;20016;-66
2022/11/17 08:50:10;;;;;;;12.73;7.35;;;;;;;;;;6219981;23;20411;-66
2022/11/17 08:52:36;;;;;;;9.95;7.10;;;;;;;;;;6220009;23;20090;-67
2022/11/17 08:55:04;;;;;;;10.10;6.97;;;;;;;;;;6246941;23;20446;-66
2022/11/17 08:57:31;;;;;;;10.80;6.88;;;;;;;;;;6245976;23;20016;-67
2022/11/17 08:59:57;;;;;;;8.60;6.38;;;;;;;;;;6220255;23;20016;-66
2022/11/17 09:02:25;;;;;;;9.93;7.07;;;;;;;;;;6247225;23;20016;-66
2022/11/17 09:04:51;;;;;;;10.90;7.25;;;;;;;;;;6247213;23;20012;-66
2022/11/17 09:07:17;;;;;;;14.13;7.55;;;;;;;;;;6245487;23;20035;-66
2022/11/17 09:09:45;;;;;;;13.98;7.32;;;;;;;;;;6219913;23;20069;-66
2022/11/17 09:12:11;;;;;;;9.45;6.72;;;;;;;;;;6219812;23;20012;-67
2022/11/17 09:14:37;;;;;;;11.35;7.00;;;;;;;;;;6220067;23;20016;-67
2022/11/17 09:17:03;;;;;;;10.38;6.45;;;;;;;;;;6247328;23;20012;-67
2022/11/17 09:19:29;;;;;;;11.48;7.18;;;;;;;;;;6245325;23;20019;-67
2022/11/17 09:21:56;;;;;;;13.15;6.70;;;;;;;;;;6246947;23;20373;-66
2022/11/17 09:24:22;;;;;;;12.52;7.18;;;;;;;;;;6247239;23;20015;-67
2022/11/17 09:26:48;;;;;;;8.57;6.82;;;;;;;;;;6219865;23;20020;-67
2022/11/17 09:29:15;;;;;;;9.63;7.28;;;;;;;;;;6219578;23;20020;-66
2022/11/17 09:31:41;;;;;;;10.38;6.40;;;;;;;;;;6219897;23;20020;-66
2022/11/17 09:34:07;;;;;;;8.13;6.18;;;;;;;;;;6220308;23;20013;-66
2022/11/17 09:36:33;;;;;;;8.05;6.60;;;;;;;;;;6219914;23;20086;-66
2022/11/17 09:38:59;;;;;;;7.90;6.35;;;;;;;;;;6246180;23;20039;-67
2022/11/17 09:41:42;;;;;;;7.68;6.20;;;;;;;;;;6244319;23;20052;-66
2022/11/17 09:44:28;;;;;;;9.55;6.20;;;;;;;;;;6217574;23;20070;-69
2022/11/17 09:47:06;;;;;;;7.80;6.32;;;;;;;;;;6217397;23;20020;-71
2022/11/17 09:49:35;;;;;;;9.00;6.47;;;;;;;;;;6218523;23;20074;-66
2022/11/17 09:52:04;;;;;;;7.85;6.00;;;;;;;;;;6246734;23;20023;-67
2022/11/17 09:54:42;;;;;;;8.73;6.50;;;;;;;;;;6219583;23;20016;-66
2022/11/17 09:57:15;;;;;;;9.57;6.63;;;;;;;;;;6219633;23;20042;-66
2022/11/17 09:59:41;;;;;;;10.30;5.93;;;;;;;;;;6219693;23;20019;-66
2022/11/17 10:02:10;;;;;;;9.35;6.30;;;;;;;;;;6219651;23;20087;-67
2022/11/17 10:04:36;;;;;;;9.90;6.57;;;;;;;;;;6246714;23;20362;-67
2022/11/17 10:07:03;;;;;;;9.77;6.82;;;;;;;;;;6246747;23;20015;-67
2022/11/17 10:09:35;;;;;;;7.55;6.18;;;;;;;;;;6219499;23;20020;-67
2022/11/17 10:12:13;;;;;;;10.60;7.10;;;;;;;;;;6246328;23;20028;-66
2022/11/17 10:14:39;;;;;;;11.07;6.25;;;;;;;;;;6218838;23;20016;-66
2022/11/17 10:17:06;;;;;;;9.43;6.38;;;;;;;;;;6246456;23;20012;-67
2022/11/17 10:19:33;;;;;;;8.07;5.68;;;;;;;;;;6246574;23;20308;-67
2022/11/17 10:22:02;;;;;;;7.55;5.88;;;;;;;;;;6219471;23;20344;-67
2022/11/17 10:24:36;;;;;;;6.18;5.43;;;;;;;;;;6219405;23;20090;-66
2022/11/17 10:27:03;;;;;;;8.10;5.93;;;;;;;;;;6219491;23;20027;-66
2022/11/17 10:29:29;;;;;;;9.13;6.00;;;;;;;;;;6208057;23;20025;-66
2022/11/17 10:31:56;;;;;;;7.13;5.50;;;;;;;;;;6185742;23;20025;-67
2022/11/17 10:34:34;;;;;;;8.25;5.63;;;;;;;;;;6185058;23;20020;-66
2022/11/17 10:37:24;;;;;;;7.25;5.57;;;;;;;;;;6183541;23;20009;-66
2022/11/17 10:39:50;;;;;;;8.02;5.25;;;;;;;;;;6182776;23;20065;-67
2022/11/17 10:42:29;;;;;;;7.85;5.15;;;;;;;;;;6183225;23;20068;-66
2022/11/17 10:44:59;;;;;;;7.57;5.70;;;;;;;;;;6183537;23;20332;-66
2022/11/17 10:47:25;;;;;;;7.38;5.93;;;;;;;;;;6183663;23;20017;-66
2022/11/17 10:50:17;;;;;;;7.40;5.60;;;8.10;99.90;;;;;;6185231;23;20024;-66
2022/11/17 10:52:44;;;;;;;6.68;5.40;;;;;;;;;;6158576;23;20032;-66
2022/11/17 10:55:17;;;;;;;7.47;5.35;;;;;;;;;;6183909;23;20017;-66
2022/11/17 10:57:45;;;;;;;6.40;5.18;;;;;;;;;;6158891;23;20096;-66
2022/11/17 11:00:37;;;;;;;6.53;5.07;;;;;;;;;;6185259;23;20088;-66
2022/11/17 11:03:06;;;;;;;6.85;5.35;;;;;;;;;;6179661;23;20132;-65
2022/11/17 11:05:32;;;;;;;7.43;5.20;;;;;;;;;;6185896;23;20020;-65
2022/11/17 11:08:15;;;;;;;6.78;5.30;;;;;;;;;;6185807;23;20017;-65
2022/11/17 11:10:42;;;;;;;6.15;4.68;;;;;;;;;;6185479;23;20017;-65
2022/11/17 11:13:15;;;;;;;7.65;5.40;;;;;;;;;;6184001;23;20013;-65
2022/11/17 11:15:41;;;;;;;6.75;4.75;;;;;;;;;;6183861;23;20084;-65
2022/11/17 11:18:15;;;;;;;6.45;4.95;;;;;;;;;;6185764;23;20013;-65
2022/11/17 11:20:44;;;;;;;6.90;5.43;;;;;;;;;;6185613;23;20017;-65
2022/11/17 11:23:33;;;;;;;6.90;4.90;;;;;;;;;;6183869;23;20020;-65
2022/11/17 11:26:05;;;;;;;6.50;4.85;;;;;;;;;;6176079;23;20048;-65
2022/11/17 11:28:54;;;;;;;6.68;5.20;;;;;;;;;;6185800;23;20107;-65
2022/11/17 11:31:35;;;;;;;7.68;5.13;;;;;;;;;;6242959;23;20023;-65
2022/11/17 11:34:16;;;;;;;6.32;5.07;;;;;;;;;;6246003;23;20016;-65
2022/11/17 11:36:46;;;;;;;9.43;5.13;;;;;;;;;;6218776;23;20043;-65
2022/11/17 11:39:23;;;;;;;8.55;5.50;;;;;;;;;;6245993;23;20016;-65
2022/11/17 11:42:16;;;;;;;7.18;5.22;;;8.10;99.90;;;;;;6245792;23;20447;-65
2022/11/17 11:45:02;;;;;;;8.40;5.50;;;;;;;;;;6194560;23;20023;-65
2022/11/17 11:47:40;;;;;;;6.05;4.80;;;;;;;;;;6248337;23;20388;-65
2022/11/17 11:50:06;;;;;;;7.05;4.82;;;;;;;;;;6247651;23;20091;-65
2022/11/17 11:52:35;;;;;;;8.63;4.82;;;;;;;;;;6248039;23;20019;-65
2022/11/17 11:55:05;;;;;;;9.23;5.32;;;;;;;;;;6247967;23;20012;-65
2022/11/17 11:57:40;;;;;;;5.35;4.45;;;;;;;;;;6221157;23;20016;-65
2022/11/17 12:00:13;;;;;;;6.65;5.30;;;;;;;;;;6220658;23;20065;-65
2022/11/17 12:02:39;;;;;;;7.22;5.13;;;;;;;;;;6247820;23;20038;-65
2022/11/17 12:05:25;;;;;;;6.03;5.07;;;;;;;;;;6246498;23;20039;-68
2022/11/17 12:07:54;;;;;;;7.03;4.43;;;;;;;;;;6218890;22;21255;-69
2022/11/17 12:10:28;;;;;;;7.10;5.00;;;;;;;;;;6219982;23;20017;-65
2022/11/17 12:12:54;;;;;;;6.38;4.40;;;;;;;;;;6247300;23;20017;-65
2022/11/17 12:15:20;;;;;;;5.78;4.32;;;;;;;;;;6220936;23;20008;-66
2022/11/17 12:17:52;;;;;;;4.95;4.10;;;;;;;;;;6220453;23;20023;-66
2022/11/17 12:20:30;;;;;;;5.55;4.35;;;;;;;;;;6220660;23;20059;-66
2022/11/17 12:23:06;;;;;;;5.28;4.03;;;;;;;;;;6247504;23;20012;-66
2022/11/17 12:25:34;;;;;;;5.80;4.38;;;;;;;;;;6220215;23;20020;-66
2022/11/17 12:28:20;;;;;;;5.95;4.35;;;;;;;;;;6220322;23;20023;-66
2022/11/17 12:30:46;;;;;;;5.03;3.92;;;;;;;;;;6247049;23;20028;-66
2022/11/17 12:33:12;;;;;;;5.13;3.80;;;;;;;;;;6247216;23;20023;-66
2022/11/17 12:35:39;;;;;;;5.22;3.72;;;;;;;;;;6220266;23;20430;-66
2022/11/17 12:38:15;;;;;;;5.00;3.65;;;;;;;;;;6247199;23;20012;-66
2022/11/17 12:40:45;;;;;;;5.25;3.63;;;;;;;;;;6246131;23;20019;-65
2022/11/17 12:43:14;;;;;;;5.90;3.85;;;;;;;;;;6247266;23;20012;-65
2022/11/17 12:45:52;;;;;;;7.45;3.88;;;;;;;;;;6247026;23;20012;-66
2022/11/17 12:48:30;;;;;;;7.85;5.05;;;;;;;;;;6246912;23;20019;-65
2022/11/17 12:51:05;;;;;;;7.18;3.70;;;;;;;;;;6245624;23;20026;-65
2022/11/17 12:53:50;;;;;;;6.93;4.00;;;;;;;;;;6246974;23;20022;-65
2022/11/17 12:56:22;;;;;;;5.32;3.70;;;;;;;;;;6219770;23;20023;-65
2022/11/17 12:58:48;;;;;;;6.03;3.63;;;;;;;;;;6247001;23;20066;-65
2022/11/17 13:01:24;;;;;;;5.43;3.67;;;;;;;;;;6247343;23;20020;-65
2022/11/17 13:04:03;;;;;;;5.57;3.97;;;;;;;;;;6247349;23;20316;-65
2022/11/17 13:06:29;;;;;;;8.20;3.90;;;;;;;;;;6219977;23;20091;-66
2022/11/17 13:08:59;;;;;;;6.85;3.83;;;;;;;;;;6220393;23;20078;-65
2022/11/17 13:11:25;;;;;;;7.50;3.80;;;;;;;;;;6220086;23;20066;-66
2022/11/17 13:14:12;;;;;;;5.43;3.85;;;;;;;;;;6246926;23;20016;-66
2022/11/17 13:16:51;;;;;;;6.07;3.75;;;;;;;;;;6219818;23;20019;-66
2022/11/17 13:19:23;;;;;;;5.97;3.80;;;;;;;;;;6220682;23;20429;-65
2022/11/17 13:21:57;;;;;;;5.72;4.05;;;;;;;;;;6219904;23;20094;-65
2022/11/17 13:24:36;;;;;;;9.40;4.50;;;;;;;;;;6219519;23;20410;-65
2022/11/17 13:27:06;;;;;;;7.82;4.85;;;;;;;;;;6246275;23;20016;-65
2022/11/17 13:29:32;;;;;;;5.20;3.60;;;;;;;;;;6246049;23;20026;-65
2022/11/17 13:32:19;;;;;;;6.78;4.30;;;;;;;;;;6246223;23;20063;-65
2022/11/17 13:34:55;;;;;;;6.50;4.30;;;;;;;;;;6246039;23;20410;-65
2022/11/17 13:37:23;;;;;;;7.82;5.07;;;;;;;;;;6219280;23;20044;-65
2022/11/17 13:39:53;;;;;;;6.32;3.83;;;;;;;;;;6246574;23;20312;-65
2022/11/17 13:42:19;;;;;;;8.00;4.22;;;;;;;;;;6246058;23;20085;-65
2022/11/17 13:44:46;;;;;;;6.60;4.45;;;;;;;;;;6219163;23;20023;-65
2022/11/17 13:47:26;;;;;;;12.00;4.00;;;;;;;;;;6244454;23;20118;-66
2022/11/17 13:49:53;;;;;;;6.68;4.30;;;;;;;;;;6219290;23;20457;-65
2022/11/17 13:52:25;;;;;;;9.68;4.78;;;;;;;;;;6246293;23;20094;-66
2022/11/17 13:54:51;;;;;;;7.65;4.40;;;;;;;;;;6219115;23;20091;-65
2022/11/17 13:57:22;;;;;;;10.38;4.28;;;;;;;;;;6246021;23;20023;-65
2022/11/17 13:59:49;;;;;;;8.55;3.83;;;;;;;;;;6219126;23;20017;-66
2022/11/17 14:02:18;;;;;;;6.78;4.30;;;;;;;;;;6244918;23;20016;-66
2022/11/17 14:05:02;;;;;;;6.03;4.00;;;;;;;;;;6246256;23;20026;-65
2022/11/17 14:07:29;;;;;;;7.18;4.47;;;;;;;;;;6218923;23;20489;-66
2022/11/17 14:10:14;;;;;;;7.32;4.00;;;;;;;;;;6245691;22;20015;-65
2022/11/17 14:12:41;;;;;;;8.38;4.38;;;;;;;;;;6246111;23;20016;-66
2022/11/17 14:15:14;;;;;;;5.03;4.25;;;;;;;;;;6245700;23;20023;-66
2022/11/17 14:17:40;;;;;;;8.52;4.38;;;;;;;;;;6219042;23;20019;-66
2022/11/17 14:20:25;;;;;;;6.25;4.20;;;;;;;;;;6246035;23;20016;-66
2022/11/17 14:23:07;;;;;;;7.57;4.25;;;;;;;;;;6218919;23;20035;-66
2022/11/17 14:25:34;;;;;;;9.63;4.33;;;;;;;;;;6244387;23;20386;-66
2022/11/17 14:28:00;;;;;;;8.20;4.60;;;;;;;;;;6246023;23;20012;-66
2022/11/17 14:30:27;;;;;;;9.43;4.55;;;;;;;;;;6195804;23;20017;-66
2022/11/17 14:32:53;;;;;;;7.70;4.10;;;;;;;;;;6183724;23;20470;-66
2022/11/17 14:35:19;;;;;;;7.00;4.10;;;;;;;;;;6183642;23;20155;-66
2022/11/17 14:37:45;;;;;;;7.53;3.97;;;;;;;;;;6185242;23;20013;-66
2022/11/17 14:40:18;;;;;;;7.10;4.05;;;;;;;;;;5089378;28;20393;-64
2022/11/17 14:42:44;;;;;;;11.43;3.80;;;;;;;;;;5076733;28;20048;-64
2022/11/17 14:45:14;;;;;;;11.10;3.60;;;;;;;;;;5074339;28;20395;-64
2022/11/17 14:47:40;;;;;;;8.73;3.00;;;;;;;;;;5079852;28;20551;-66
2022/11/17 14:50:12;;;;;;;4.93;2.60;;;;;;;;;;5068000;28;20052;-66
2022/11/17 14:52:39;;;;;;;7.20;2.70;;;;;;;;;;5077327;28;20090;-66
2022/11/17 14:55:06;;;;;;;7.75;2.60;;;;;;;;;;5085465;28;20123;-66
2022/11/17 14:57:33;;;;;;;8.77;2.80;;;;;;;;;;5076074;28;20386;-66
2022/11/17 14:59:59;;;;;;;7.65;2.50;;;;;;;;;;5053299;28;20067;-66
2022/11/17 15:02:25;;;;;;;8.20;2.50;;;;;;;;;;5067607;28;20046;-67
2022/11/17 15:04:51;;;;;;;5.60;2.38;;;;;;;;;;5079990;28;20040;-67
2022/11/17 15:07:17;;;;;;;6.68;2.30;;;;;;;;;;5073019;28;20046;-66